Time;durP1;ratioP1;P1;durP2;ratioP2;P2;SDS_P1;SDS_P2;PMS_P1;PMS_P2;Temp;Humidity;BMP_temperature;BMP_pressure;BME280_temperature;BME280_humidity;BME280_pressure;Samples;Min_cycle;Max_cycle;Signal;HPM_P1;HPM_P2
2022/10/27 00:01:52;;;;;;;4.93;3.40;;;13.70;99.90;;;;;;5011817;28;20494;-72
2022/10/27 00:04:18;;;;;;;5.60;3.15;;;13.70;99.90;;;;;;5012209;28;20407;-72
2022/10/27 00:06:44;;;;;;;7.07;3.30;;;13.60;99.90;;;;;;4991325;28;20053;-72
2022/10/27 00:09:09;;;;;;;6.13;3.00;;;13.60;99.90;;;;;;5011221;28;20058;-72
2022/10/27 00:11:35;;;;;;;6.72;2.90;;;13.60;99.90;;;;;;5011749;28;20057;-72
2022/10/27 00:14:01;;;;;;;4.97;3.17;;;13.50;99.90;;;;;;5011505;28;20046;-72
2022/10/27 00:16:26;;;;;;;5.50;3.42;;;13.50;99.90;;;;;;5011737;28;20139;-72
2022/10/27 00:18:52;;;;;;;6.97;3.60;;;13.40;99.90;;;;;;5011843;28;20104;-72
2022/10/27 00:21:19;;;;;;;5.40;3.25;;;13.40;99.90;;;;;;5011140;28;20038;-72
2022/10/27 00:23:49;;;;;;;6.00;3.50;;;13.40;99.90;;;;;;5011696;28;20117;-72
2022/10/27 00:26:17;;;;;;;7.45;3.63;;;13.40;99.90;;;;;;4993871;28;20049;-72
2022/10/27 00:28:43;;;;;;;6.70;3.33;;;13.40;99.90;;;;;;5011502;28;20144;-72
2022/10/27 00:31:20;;;;;;;5.63;3.47;;;13.40;99.90;;;;;;5011339;28;20139;-72
2022/10/27 00:33:48;;;;;;;5.80;3.42;;;13.40;99.90;;;;;;5010566;28;20427;-72
2022/10/27 00:36:16;;;;;;;8.02;3.45;;;13.40;99.90;;;;;;4993615;28;20124;-72
2022/10/27 00:38:42;;;;;;;8.60;4.05;;;13.40;99.90;;;;;;4993285;28;20085;-72
2022/10/27 00:41:26;;;;;;;6.15;3.50;;;13.50;99.90;;;;;;4993478;28;20060;-72
2022/10/27 00:43:52;;;;;;;7.55;4.15;;;13.50;99.90;;;;;;5011593;28;20111;-72
2022/10/27 00:46:40;;;;;;;6.95;3.65;;;13.50;99.90;;;;;;5011046;28;20479;-72
2022/10/27 00:49:09;;;;;;;6.47;3.47;;;13.70;99.90;;;;;;5011047;28;20054;-72
2022/10/27 00:52:18;;;;;;;4.53;3.63;;;13.70;99.90;;;;;;5010752;28;20052;-72
2022/10/27 00:54:44;;;;;;;5.15;3.30;;;13.80;99.90;;;;;;4989337;28;20116;-72
2022/10/27 00:57:11;;;;;;;6.80;3.80;;;13.80;99.90;;;;;;5011298;28;20112;-72
2022/10/27 00:59:37;;;;;;;5.80;3.63;;;13.90;99.90;;;;;;5010998;28;20057;-72
2022/10/27 01:02:04;;;;;;;6.78;3.60;;;13.90;99.90;;;;;;5010815;28;20061;-72
2022/10/27 01:04:47;;;;;;;7.20;3.90;;;13.90;99.90;;;;;;5011273;28;20060;-73
2022/10/27 01:07:15;;;;;;;6.82;3.65;;;13.90;99.90;;;;;;4999209;28;20305;-72
2022/10/27 01:09:42;;;;;;;6.85;3.13;;;13.80;99.90;;;;;;4991391;28;20039;-72
2022/10/27 01:12:08;;;;;;;5.43;3.72;;;13.80;99.90;;;;;;4988759;28;20046;-72
2022/10/27 01:14:34;;;;;;;7.10;4.15;;;13.90;99.90;;;;;;4997733;28;20050;-72
2022/10/27 01:17:23;;;;;;;8.27;4.57;;;13.90;99.90;;;;;;5014952;28;20060;-72
2022/10/27 01:19:58;;;;;;;8.50;3.70;;;13.90;99.90;;;;;;5015256;28;20124;-71
2022/10/27 01:23:01;;;;;;;5.15;3.72;;;14.00;99.90;;;;;;5015019;28;20561;-72
2022/10/27 01:25:43;;;;;;;7.43;3.70;;;14.00;99.90;;;;;;5012604;28;20470;-72
2022/10/27 01:28:31;;;;;;;5.35;3.50;;;14.10;99.90;;;;;;5013162;28;20042;-71
2022/10/27 01:31:11;;;;;;;5.40;3.83;;;14.20;99.90;;;;;;5014845;28;20144;-72
2022/10/27 01:33:40;;;;;;;5.47;3.80;;;14.20;99.90;;;;;;5002508;28;20054;-72
2022/10/27 01:36:33;;;;;;;6.07;3.90;;;14.20;99.90;;;;;;5014212;28;20128;-72
2022/10/27 01:39:11;;;;;;;5.38;3.47;;;14.30;99.90;;;;;;5006748;28;20057;-72
2022/10/27 01:41:48;;;;;;;5.75;3.50;;;14.20;99.90;;;;;;5014679;28;20088;-72
2022/10/27 01:44:23;;;;;;;8.15;3.55;;;14.30;99.90;;;;;;5014205;28;20455;-72
2022/10/27 01:46:50;;;;;;;4.80;3.40;;;14.20;99.90;;;;;;4996873;28;20054;-72
2022/10/27 01:49:15;;;;;;;5.55;3.25;;;14.20;99.90;;;;;;5014232;28;20050;-73
2022/10/27 01:51:41;;;;;;;4.90;3.03;;;14.20;99.90;;;;;;5014407;28;20038;-72
2022/10/27 01:54:07;;;;;;;5.88;3.60;;;14.20;99.90;;;;;;5014249;28;20034;-73
2022/10/27 01:56:48;;;;;;;5.55;3.78;;;14.20;99.90;;;;;;4996688;28;20481;-73
2022/10/27 01:59:28;;;;;;;5.18;3.28;;;14.20;99.90;;;;;;5014406;28;20399;-72
2022/10/27 02:02:09;;;;;;;6.53;3.78;;;14.30;99.90;;;;;;5013658;28;20510;-72
2022/10/27 02:04:38;;;;;;;5.75;3.80;;;14.30;99.90;;;;;;5013890;28;20649;-72
2022/10/27 02:07:44;;;;;;;6.93;3.75;;;14.30;99.90;;;;;;5013678;28;20056;-72
2022/10/27 02:10:23;;;;;;;6.18;3.67;;;14.30;99.90;;;;;;4982296;28;20054;-72
2022/10/27 02:12:49;;;;;;;5.70;3.80;;;14.20;99.90;;;;;;4991407;28;20052;-72
2022/10/27 02:15:27;;;;;;;6.40;3.88;;;14.20;99.90;;;;;;5004258;28;20057;-72
2022/10/27 02:17:58;;;;;;;5.95;4.35;;;14.30;99.90;;;;;;5013765;28;20440;-72
2022/10/27 02:20:28;;;;;;;5.75;4.20;;;14.20;99.90;;;;;;5012862;28;20410;-72
2022/10/27 02:22:55;;;;;;;7.38;4.10;;;14.20;99.90;;;;;;5013610;28;20523;-72
2022/10/27 02:25:26;;;;;;;7.35;4.57;;;14.20;99.90;;;;;;5013797;28;20045;-72
2022/10/27 02:27:57;;;;;;;9.27;4.38;;;14.20;99.90;;;;;;5013695;28;20041;-72
2022/10/27 02:30:23;;;;;;;7.53;4.10;;;14.20;99.90;;;;;;5013807;28;20117;-73
2022/10/27 02:32:49;;;;;;;7.00;4.30;;;14.20;99.90;;;;;;5012969;28;20244;-72
2022/10/27 02:35:16;;;;;;;7.35;3.78;;;14.10;99.90;;;;;;5013068;28;20147;-72
2022/10/27 02:37:44;;;;;;;6.15;4.10;;;14.10;99.90;;;;;;5013059;28;20061;-72
2022/10/27 02:40:10;;;;;;;7.32;4.10;;;14.10;99.90;;;;;;5013417;28;20050;-72
2022/10/27 02:42:35;;;;;;;6.55;4.13;;;14.00;99.90;;;;;;5013307;28;20060;-72
2022/10/27 02:45:01;;;;;;;6.40;4.53;;;14.00;99.90;;;;;;5013262;28;20124;-72
2022/10/27 02:47:27;;;;;;;5.90;4.25;;;14.00;99.90;;;;;;5013211;28;20074;-73
2022/10/27 02:49:52;;;;;;;9.23;4.60;;;13.90;99.90;;;;;;4995387;28;20050;-72
2022/10/27 02:52:18;;;;;;;6.15;4.10;;;13.90;99.90;;;;;;5013390;28;20053;-72
2022/10/27 02:54:47;;;;;;;8.68;4.00;;;13.90;99.90;;;;;;5013305;28;20371;-72
2022/10/27 02:57:17;;;;;;;5.85;4.00;;;13.80;99.90;;;;;;5012059;28;20085;-72
2022/10/27 02:59:43;;;;;;;5.72;3.92;;;13.80;99.90;;;;;;5012989;28;20045;-72
2022/10/27 03:02:09;;;;;;;7.93;4.22;;;13.70;99.90;;;;;;5013151;28;20088;-72
2022/10/27 03:04:35;;;;;;;7.28;4.78;;;13.70;99.90;;;;;;5012952;28;20096;-72
2022/10/27 03:07:01;;;;;;;6.68;4.30;;;13.70;99.90;;;;;;5013019;28;20046;-72
2022/10/27 03:09:27;;;;;;;7.35;4.35;;;13.70;99.90;;;;;;5012941;28;20061;-71
2022/10/27 03:11:52;;;;;;;7.40;4.57;;;13.80;99.90;;;;;;5019484;28;20045;-72
2022/10/27 03:14:18;;;;;;;7.32;4.50;;;13.80;99.90;;;;;;5019060;28;20394;-72
2022/10/27 03:16:44;;;;;;;8.82;4.63;;;13.80;99.90;;;;;;5018815;28;20437;-72
2022/10/27 03:19:09;;;;;;;7.53;4.97;;;13.80;99.90;;;;;;5012771;28;20057;-72
2022/10/27 03:21:35;;;;;;;6.95;4.68;;;13.80;99.90;;;;;;5012558;28;20042;-71
2022/10/27 03:24:01;;;;;;;7.75;4.72;;;13.80;99.90;;;;;;5012385;28;20125;-72
2022/10/27 03:26:26;;;;;;;6.90;4.10;;;13.80;99.90;;;;;;5012635;28;20402;-71
2022/10/27 03:28:52;;;;;;;7.53;4.22;;;13.80;99.90;;;;;;5012605;28;20394;-72
2022/10/27 03:31:17;;;;;;;6.18;4.03;;;13.80;99.90;;;;;;5012271;28;20391;-71
2022/10/27 03:33:43;;;;;;;5.85;4.13;;;13.80;99.90;;;;;;5008983;28;20109;-71
2022/10/27 03:36:10;;;;;;;7.47;4.05;;;13.70;99.90;;;;;;5008491;28;20581;-72
2022/10/27 03:38:36;;;;;;;7.25;4.13;;;13.70;99.90;;;;;;5008834;28;20515;-71
2022/10/27 03:41:03;;;;;;;9.75;4.70;;;13.70;99.90;;;;;;5009398;28;20042;-71
2022/10/27 03:43:28;;;;;;;6.35;4.38;;;13.70;99.90;;;;;;5012184;28;20048;-71
2022/10/27 03:45:54;;;;;;;5.22;4.13;;;13.70;99.90;;;;;;5012085;28;20042;-71
2022/10/27 03:48:19;;;;;;;6.13;4.10;;;13.70;99.90;;;;;;5012280;28;20116;-71
2022/10/27 03:50:47;;;;;;;5.03;4.00;;;13.70;99.90;;;;;;4991382;28;20050;-71
2022/10/27 03:53:14;;;;;;;7.38;4.13;;;13.70;99.90;;;;;;5001181;28;20056;-71
2022/10/27 03:55:40;;;;;;;5.53;4.18;;;13.70;99.90;;;;;;5012229;28;20089;-71
2022/10/27 03:58:07;;;;;;;6.47;4.00;;;13.70;99.90;;;;;;5012012;28;20564;-71
2022/10/27 04:00:32;;;;;;;5.47;3.80;;;13.70;99.90;;;;;;5011924;28;20050;-71
2022/10/27 04:02:58;;;;;;;6.10;3.95;;;13.70;99.90;;;;;;5011163;28;20049;-71
2022/10/27 04:05:24;;;;;;;7.43;4.45;;;13.70;99.90;;;;;;5011928;28;20089;-71
2022/10/27 04:07:50;;;;;;;6.57;3.80;;;13.70;99.90;;;;;;4993972;28;20086;-71
2022/10/27 04:10:16;;;;;;;5.78;4.25;;;13.70;99.90;;;;;;5011810;28;20484;-71
2022/10/27 04:12:49;;;;;;;5.78;4.10;;;13.70;99.90;;;;;;4994165;28;20061;-71
2022/10/27 04:15:16;;;;;;;7.18;3.75;;;13.70;99.90;;;;;;5017910;28;20131;-70
2022/10/27 04:17:41;;;;;;;4.60;3.47;;;13.60;99.90;;;;;;5011308;28;20487;-70
2022/10/27 04:20:07;;;;;;;6.93;3.78;;;13.50;99.90;;;;;;5012352;28;20148;-71
2022/10/27 04:22:33;;;;;;;6.13;3.75;;;13.50;99.90;;;;;;4993947;28;20046;-71
2022/10/27 04:24:59;;;;;;;6.28;3.53;;;13.40;99.90;;;;;;5011723;28;20451;-71
2022/10/27 04:27:24;;;;;;;5.28;3.65;;;13.30;99.90;;;;;;5011235;28;20543;-71
2022/10/27 04:29:50;;;;;;;6.32;3.70;;;13.30;99.90;;;;;;5011441;28;20462;-71
2022/10/27 04:32:15;;;;;;;5.97;3.72;;;13.30;99.90;;;;;;5010401;28;20038;-71
2022/10/27 04:34:41;;;;;;;8.23;4.03;;;13.30;99.90;;;;;;5011320;28;20062;-71
2022/10/27 04:37:07;;;;;;;6.07;3.88;;;13.30;99.90;;;;;;5011289;28;20414;-70
2022/10/27 04:39:33;;;;;;;5.72;4.03;;;13.30;99.90;;;;;;5010203;28;20456;-71
2022/10/27 04:41:59;;;;;;;6.22;4.05;;;13.40;99.90;;;;;;5011686;28;20052;-71
2022/10/27 04:44:24;;;;;;;6.57;4.22;;;13.40;99.90;;;;;;5011478;28;20121;-71
2022/10/27 04:46:50;;;;;;;8.07;4.43;;;13.40;99.90;;;;;;5011167;28;20054;-71
2022/10/27 04:49:16;;;;;;;6.53;4.15;;;13.40;99.90;;;;;;5011451;28;20058;-71
2022/10/27 04:51:41;;;;;;;8.38;4.07;;;13.40;99.90;;;;;;5011221;28;20056;-71
2022/10/27 04:54:07;;;;;;;6.25;3.78;;;13.40;99.90;;;;;;5011443;28;20590;-71
2022/10/27 04:56:33;;;;;;;5.97;4.22;;;13.50;99.90;;;;;;5011452;28;20054;-71
2022/10/27 04:58:58;;;;;;;6.78;4.38;;;13.40;99.90;;;;;;5010997;28;20388;-71
2022/10/27 05:01:24;;;;;;;6.80;4.18;;;13.50;99.90;;;;;;5010987;28;20129;-71
2022/10/27 05:03:50;;;;;;;7.47;4.45;;;13.50;99.90;;;;;;5010983;28;20057;-71
2022/10/27 05:06:15;;;;;;;6.90;4.32;;;13.50;99.90;;;;;;5011050;28;20046;-71
2022/10/27 05:08:41;;;;;;;5.45;4.47;;;13.50;99.90;;;;;;5010655;28;20046;-72
2022/10/27 05:11:07;;;;;;;7.13;4.30;;;13.50;99.90;;;;;;4990288;28;20046;-71
2022/10/27 05:13:32;;;;;;;8.20;5.93;;;13.50;99.90;;;;;;5009523;28;20049;-71
2022/10/27 05:16:03;;;;;;;6.97;4.20;;;13.50;99.90;;;;;;5009884;28;20513;-72
2022/10/27 05:18:29;;;;;;;5.72;4.22;;;13.50;99.90;;;;;;5010906;28;20053;-72
2022/10/27 05:20:55;;;;;;;7.18;4.38;;;13.60;99.90;;;;;;5010630;28;20042;-71
2022/10/27 05:23:22;;;;;;;8.18;4.57;;;13.60;99.90;;;;;;5011256;28;20077;-72
2022/10/27 05:25:51;;;;;;;7.45;4.43;;;13.70;99.90;;;;;;5010836;28;20050;-71
2022/10/27 05:28:17;;;;;;;6.30;4.40;;;13.70;99.90;;;;;;4993560;28;20391;-71
2022/10/27 05:30:42;;;;;;;7.38;4.07;;;13.70;99.90;;;;;;5010884;28;20042;-71
2022/10/27 05:33:08;;;;;;;5.85;4.28;;;13.80;99.90;;;;;;5010793;28;20080;-71
2022/10/27 05:35:34;;;;;;;7.78;4.45;;;13.80;99.90;;;;;;5010750;28;20490;-71
2022/10/27 05:37:59;;;;;;;6.47;4.03;;;13.80;99.90;;;;;;5010656;28;20132;-71
2022/10/27 05:40:25;;;;;;;6.00;4.38;;;13.80;99.90;;;;;;5010730;28;20046;-71
2022/10/27 05:42:53;;;;;;;5.90;4.20;;;13.80;99.90;;;;;;5010658;28;20049;-71
2022/10/27 05:45:21;;;;;;;6.68;4.63;;;13.80;99.90;;;;;;5010410;28;20495;-72
2022/10/27 05:47:47;;;;;;;6.35;4.32;;;13.90;99.90;;;;;;5010199;28;20104;-72
2022/10/27 05:50:13;;;;;;;5.70;4.22;;;13.90;99.90;;;;;;4989895;28;20058;-72
2022/10/27 05:52:39;;;;;;;6.00;4.25;;;13.80;99.90;;;;;;5007451;28;20042;-71
2022/10/27 05:55:05;;;;;;;5.70;4.30;;;13.80;99.90;;;;;;5010704;28;20056;-71
2022/10/27 05:57:31;;;;;;;7.65;4.32;;;13.80;99.90;;;;;;5012694;28;20379;-71
2022/10/27 05:59:56;;;;;;;6.28;3.90;;;13.80;99.90;;;;;;5013755;28;20058;-71
2022/10/27 06:02:22;;;;;;;5.57;4.03;;;13.80;99.90;;;;;;5013425;28;20038;-70
2022/10/27 06:04:48;;;;;;;6.93;4.35;;;13.80;99.90;;;;;;5013983;28;20130;-71
2022/10/27 06:07:13;;;;;;;10.73;4.40;;;13.80;99.90;;;;;;5013841;28;20052;-71
2022/10/27 06:09:39;;;;;;;6.35;3.83;;;13.80;99.90;;;;;;5014174;28;20050;-71
2022/10/27 06:12:04;;;;;;;7.03;4.50;;;13.90;99.90;;;;;;4985432;28;20057;-71
2022/10/27 06:14:30;;;;;;;6.90;4.22;;;13.90;99.90;;;;;;5018130;28;20049;-71
2022/10/27 06:16:56;;;;;;;5.93;4.00;;;13.90;99.90;;;;;;4996203;28;20424;-65
2022/10/27 06:19:21;;;;;;;8.02;4.50;;;13.90;99.90;;;;;;5013177;28;20116;-66
2022/10/27 06:21:47;;;;;;;8.63;4.55;;;13.90;99.90;;;;;;4992639;28;20077;-66
2022/10/27 06:24:13;;;;;;;7.57;4.55;;;13.90;99.90;;;;;;5003121;28;20049;-66
2022/10/27 06:26:38;;;;;;;6.78;4.60;;;13.90;99.90;;;;;;5013477;28;20056;-66
2022/10/27 06:29:04;;;;;;;7.03;4.18;;;13.90;99.90;;;;;;5013406;28;20096;-66
2022/10/27 06:31:30;;;;;;;7.07;4.63;;;13.90;99.90;;;;;;5012992;28;20042;-66
2022/10/27 06:33:55;;;;;;;6.95;4.30;;;13.90;99.90;;;;;;5013825;28;20116;-66
2022/10/27 06:36:21;;;;;;;7.10;4.15;;;13.90;99.90;;;;;;4996012;28;20875;-66
2022/10/27 06:38:47;;;;;;;7.40;4.38;;;13.90;99.90;;;;;;5013223;28;20486;-66
2022/10/27 06:41:12;;;;;;;5.63;4.35;;;13.90;99.90;;;;;;4995799;28;20042;-66
2022/10/27 06:43:38;;;;;;;6.50;4.15;;;13.90;99.90;;;;;;5013094;28;20046;-66
2022/10/27 06:46:04;;;;;;;7.72;4.47;;;13.90;99.90;;;;;;5013391;28;20491;-66
2022/10/27 06:48:29;;;;;;;7.20;4.40;;;13.90;99.90;;;;;;5012556;28;20053;-66
2022/10/27 06:50:55;;;;;;;10.55;5.22;;;13.90;99.90;;;;;;5013248;28;20204;-66
2022/10/27 06:53:21;;;;;;;8.93;4.60;;;13.90;99.90;;;;;;4995665;28;20054;-66
2022/10/27 06:55:46;;;;;;;8.30;4.50;;;13.90;99.90;;;;;;5013359;28;20436;-66
2022/10/27 06:58:12;;;;;;;5.53;4.13;;;13.90;99.90;;;;;;5013221;28;20042;-66
2022/10/27 07:00:38;;;;;;;5.93;3.97;;;13.90;99.90;;;;;;5012883;28;20458;-66
2022/10/27 07:03:08;;;;;;;7.55;4.40;;;13.90;99.90;;;;;;5012196;28;20042;-66
2022/10/27 07:05:35;;;;;;;8.20;4.93;;;13.90;99.90;;;;;;5012779;28;20077;-66
2022/10/27 07:08:00;;;;;;;8.50;4.55;;;14.00;99.90;;;;;;5011471;28;20041;-66
2022/10/27 07:10:26;;;;;;;9.98;4.70;;;14.10;99.90;;;;;;5012520;28;20034;-66
2022/10/27 07:13:00;;;;;;;7.20;4.45;;;14.10;99.90;;;;;;5015160;28;20090;-66
2022/10/27 07:15:30;;;;;;;7.18;4.22;;;14.10;99.90;;;;;;5021651;28;20041;-66
2022/10/27 07:18:01;;;;;;;6.30;4.32;;;14.20;99.90;;;;;;5013147;28;20053;-66
2022/10/27 07:20:29;;;;;;;7.05;4.80;;;14.20;99.90;;;;;;5009050;28;20058;-66
2022/10/27 07:22:56;;;;;;;7.90;4.70;;;14.20;99.90;;;;;;5015076;28;20041;-66
2022/10/27 07:25:22;;;;;;;5.70;4.32;;;14.20;99.90;;;;;;5015630;28;20053;-67
2022/10/27 07:27:52;;;;;;;8.52;4.82;;;14.30;99.90;;;;;;5014121;28;20045;-66
2022/10/27 07:30:19;;;;;;;7.28;4.55;;;14.30;99.90;;;;;;5027314;28;20045;-65
2022/10/27 07:32:45;;;;;;;9.57;4.50;;;14.30;99.90;;;;;;5031142;28;20073;-66
2022/10/27 07:35:11;;;;;;;9.35;4.60;;;14.30;99.90;;;;;;5026579;28;20050;-65
2022/10/27 07:37:44;;;;;;;6.55;4.07;;;14.30;99.90;;;;;;5020126;28;20049;-65
2022/10/27 07:40:12;;;;;;;6.38;4.45;;;14.40;99.90;;;;;;5031067;28;20045;-65
2022/10/27 07:42:45;;;;;;;6.82;4.10;;;14.40;99.90;;;;;;5031642;28;20064;-65
2022/10/27 07:45:12;;;;;;;5.05;4.00;;;14.40;99.90;;;;;;5031827;28;20080;-65
2022/10/27 07:47:51;;;;;;;7.22;4.20;;;14.40;99.90;;;;;;5030968;28;20553;-65
2022/10/27 07:50:19;;;;;;;6.15;4.45;;;14.50;99.90;;;;;;5011987;28;20390;-64
2022/10/27 07:52:47;;;;;;;6.35;3.95;;;14.50;99.90;;;;;;5026775;28;20538;-65
2022/10/27 07:55:14;;;;;;;9.60;4.63;;;14.50;99.90;;;;;;5019062;28;20119;-65
2022/10/27 07:57:41;;;;;;;6.00;4.40;;;14.60;99.90;;;;;;5023091;28;20054;-65
2022/10/27 08:00:10;;;;;;;7.13;4.15;;;14.60;99.90;;;;;;5027247;28;20041;-65
2022/10/27 08:02:35;;;;;;;5.85;4.30;;;14.60;99.90;;;;;;5031235;28;20070;-64
2022/10/27 08:05:01;;;;;;;6.72;4.00;;;14.70;99.90;;;;;;5013922;28;20048;-64
2022/10/27 08:07:28;;;;;;;6.78;4.10;;;14.70;99.90;;;;;;5030845;28;20053;-65
2022/10/27 08:09:53;;;;;;;5.85;4.40;;;14.70;99.90;;;;;;5031611;28;20077;-64
2022/10/27 08:12:19;;;;;;;7.20;4.03;;;14.70;99.90;;;;;;5025821;28;20080;-64
2022/10/27 08:14:45;;;;;;;6.82;3.88;;;14.80;99.90;;;;;;5022148;28;20046;-65
2022/10/27 08:17:12;;;;;;;6.60;4.00;;;14.80;99.90;;;;;;5013718;28;20045;-64
2022/10/27 08:19:38;;;;;;;7.35;4.22;;;14.80;99.90;;;;;;5019228;28;20050;-64
2022/10/27 08:22:04;;;;;;;5.25;4.00;;;14.90;99.90;;;;;;5027122;28;20125;-64
2022/10/27 08:24:30;;;;;;;5.70;3.53;;;14.90;99.90;;;;;;5017544;28;20680;-64
2022/10/27 08:26:56;;;;;;;7.05;4.25;;;15.00;99.90;;;;;;5004692;28;20073;-64
2022/10/27 08:29:21;;;;;;;7.18;4.00;;;15.10;99.90;;;;;;5003745;28;20420;-64
2022/10/27 08:31:47;;;;;;;5.43;3.70;;;15.20;99.90;;;;;;4998928;28;20045;-64
2022/10/27 08:34:13;;;;;;;6.88;3.50;;;15.20;99.90;;;;;;5030504;28;20084;-63
2022/10/27 08:36:38;;;;;;;4.95;4.15;;;15.30;99.90;;;;;;5020151;28;20055;-64
2022/10/27 08:39:05;;;;;;;4.65;3.55;;;15.30;99.90;;;;;;5016363;28;20055;-63
2022/10/27 08:41:46;;;;;;;5.13;3.80;;;15.30;99.90;;;;;;4995518;28;20124;-63
2022/10/27 08:44:26;;;;;;;5.88;3.70;;;15.40;99.90;;;;;;5023293;28;20051;-64
2022/10/27 08:46:59;;;;;;;5.15;3.50;;;15.40;99.90;;;;;;5019945;28;20108;-65
2022/10/27 08:49:37;;;;;;;5.28;3.78;;;15.40;99.90;;;;;;5011766;28;20049;-64
2022/10/27 08:52:08;;;;;;;4.78;3.53;;;15.50;99.90;;;;;;5017125;28;20045;-64
2022/10/27 08:54:34;;;;;;;6.78;3.78;;;15.50;99.90;;;;;;5030620;28;20103;-64
2022/10/27 08:57:02;;;;;;;4.95;3.50;;;15.50;99.90;;;;;;5016365;28;20471;-64
2022/10/27 08:59:30;;;;;;;6.65;3.20;;;15.50;99.90;;;;;;5025852;28;20129;-64
2022/10/27 09:02:17;;;;;;;5.25;2.88;;;15.60;99.90;;;;;;5029960;28;20517;-64
2022/10/27 09:04:58;;;;;;;7.43;3.97;;;15.50;99.90;;;;;;5030719;28;20053;-64
2022/10/27 09:07:32;;;;;;;5.68;3.10;;;15.50;99.90;;;;;;5027532;28;20103;-64
2022/10/27 09:10:02;;;;;;;5.75;3.40;;;15.50;99.90;;;;;;5008422;28;20049;-64
2022/10/27 09:12:57;;;;;;;6.68;3.47;;;15.70;99.90;;;;;;5015256;28;20033;-64
2022/10/27 09:15:49;;;;;;;6.82;3.20;;;15.80;99.90;;;;;;5030044;28;20033;-64
2022/10/27 09:18:33;;;;;;;5.50;3.03;;;16.00;99.90;;;;;;5021657;28;20080;-64
2022/10/27 09:21:08;;;;;;;4.72;2.90;;;16.10;99.90;;;;;;5030483;28;20060;-64
2022/10/27 09:23:38;;;;;;;4.95;3.00;;;16.30;99.90;;;;;;5030625;28;20052;-64
2022/10/27 09:26:05;;;;;;;3.50;2.65;;;16.40;99.90;;;;;;5020406;28;20177;-64
2022/10/27 09:29:00;;;;;;;5.22;2.65;;;16.50;99.90;;;;;;5021101;28;20088;-64
2022/10/27 09:32:02;;;;;;;4.55;2.63;;;16.60;99.90;;;;;;5023651;28;20073;-64
2022/10/27 09:34:40;;;;;;;3.80;2.30;;;16.70;99.90;;;;;;5002951;28;20087;-64
2022/10/27 09:37:14;;;;;;;5.07;2.55;;;16.80;99.90;;;;;;5007374;28;20438;-64
2022/10/27 09:39:45;;;;;;;4.50;2.17;;;16.90;99.90;;;;;;5033952;28;20046;-64
2022/10/27 09:42:10;;;;;;;5.00;2.33;;;17.10;99.90;;;;;;5031696;28;20417;-64
2022/10/27 09:44:36;;;;;;;6.95;2.42;;;17.30;99.90;;;;;;5027039;28;20051;-65
2022/10/27 09:47:02;;;;;;;4.13;2.20;;;17.60;99.90;;;;;;5016417;28;20148;-65
2022/10/27 09:49:36;;;;;;;3.97;2.30;;;17.40;99.90;;;;;;5018582;28;20044;-65
2022/10/27 09:52:23;;;;;;;4.13;2.25;;;17.50;99.90;;;;;;5013493;28;20037;-65
2022/10/27 09:54:54;;;;;;;3.10;1.90;;;17.60;99.90;;;;;;5014255;28;20113;-65
2022/10/27 09:57:24;;;;;;;4.57;2.10;;;17.60;99.90;;;;;;5016202;28;20104;-65
2022/10/27 09:59:55;;;;;;;3.95;2.03;;;17.50;99.90;;;;;;5029891;28;20119;-65
2022/10/27 10:02:22;;;;;;;3.00;1.90;;;17.50;99.90;;;;;;5033078;28;20471;-65
2022/10/27 10:04:49;;;;;;;4.97;2.20;;;17.50;99.90;;;;;;5024750;28;20051;-65
2022/10/27 10:07:36;;;;;;;2.80;1.73;;;17.60;99.90;;;;;;5027453;28;20052;-64
2022/10/27 10:10:17;;;;;;;3.28;1.63;;;17.60;99.90;;;;;;5032447;28;20084;-64
2022/10/27 10:12:43;;;;;;;3.95;2.00;;;17.60;99.90;;;;;;5033329;28;20084;-64
2022/10/27 10:15:09;;;;;;;2.60;1.70;;;17.60;99.90;;;;;;5010370;28;20073;-65
2022/10/27 10:17:35;;;;;;;4.72;2.03;;;17.60;99.90;;;;;;5033134;28;20045;-64
2022/10/27 10:20:02;;;;;;;3.00;1.83;;;17.70;99.90;;;;;;5030120;28;20049;-64
2022/10/27 10:22:33;;;;;;;4.45;1.80;;;17.40;99.90;;;;;;5032717;28;20072;-64
2022/10/27 10:25:22;;;;;;;3.35;1.70;;;17.60;99.90;;;;;;5026225;28;20050;-65
2022/10/27 10:27:59;;;;;;;3.67;1.58;;;17.70;99.90;;;;;;5029337;28;20560;-65
2022/10/27 10:30:26;;;;;;;3.75;1.60;;;17.80;99.90;;;;;;5031928;28;20045;-65
2022/10/27 10:32:55;;;;;;;5.00;1.85;;;17.90;99.90;;;;;;5027517;28;20038;-65
2022/10/27 10:35:45;;;;;;;3.70;1.70;;;18.00;99.90;;;;;;5027116;28;20099;-65
2022/10/27 10:38:23;;;;;;;2.38;1.20;;;18.30;99.90;;;;;;5013999;28;20056;-64
2022/10/27 10:41:08;;;;;;;4.07;1.40;;;18.40;99.90;;;;;;5032535;28;20049;-64
2022/10/27 10:43:34;;;;;;;3.42;1.30;;;18.50;99.90;;;;;;5017845;28;20517;-64
2022/10/27 10:46:00;;;;;;;2.58;1.80;;;18.50;99.90;;;;;;5028367;28;20053;-63
2022/10/27 10:48:34;;;;;;;4.70;1.73;;;18.60;99.90;;;;;;5032537;28;20128;-64
2022/10/27 10:51:00;;;;;;;3.15;1.58;;;18.60;99.90;;;;;;5029791;28;20050;-64
2022/10/27 10:53:31;;;;;;;3.05;1.50;;;18.60;99.90;;;;;;5012696;28;20041;-64
2022/10/27 10:56:00;;;;;;;4.45;1.60;;;18.60;99.90;;;;;;5028496;28;20041;-64
2022/10/27 10:58:28;;;;;;;4.28;1.77;;;18.50;99.90;;;;;;5032687;28;20037;-64
2022/10/27 11:00:55;;;;;;;2.88;1.50;;;18.50;99.90;;;;;;5032048;28;20381;-64
2022/10/27 11:03:23;;;;;;;3.28;1.58;;;18.40;99.90;;;;;;5029977;28;20044;-64
2022/10/27 11:05:59;;;;;;;3.75;1.60;;;18.30;99.90;;;;;;5016598;28;20049;-64
2022/10/27 11:08:33;;;;;;;2.53;1.43;;;18.30;99.90;;;;;;5028545;28;20033;-65
2022/10/27 11:11:01;;;;;;;5.22;1.52;;;18.20;99.90;;;;;;5032107;28;20763;-65
2022/10/27 11:13:39;;;;;;;4.50;1.80;;;18.20;99.90;;;;;;5021673;28;20046;-65
2022/10/27 11:16:07;;;;;;;5.93;1.95;;;18.20;99.90;;;;;;5030297;28;20049;-65
2022/10/27 11:18:50;;;;;;;4.10;1.58;;;18.20;99.90;;;;;;5023545;28;20049;-65
2022/10/27 11:21:25;;;;;;;3.45;1.50;;;18.20;99.90;;;;;;5031493;28;20095;-66
2022/10/27 11:24:02;;;;;;;2.53;1.42;;;18.20;99.90;;;;;;5032253;28;20037;-66
2022/10/27 11:26:37;;;;;;;3.13;1.27;;;18.20;99.90;;;;;;5022268;28;20116;-66
2022/10/27 11:29:57;;;;;;;2.80;1.10;;;18.30;99.90;;;;;;5014652;28;20095;-66
2022/10/27 11:32:33;;;;;;;3.53;1.27;;;18.30;99.90;;;;;;4964952;28;20043;-66
2022/10/27 11:35:25;;;;;;;2.70;1.17;;;18.40;99.90;;;;;;4967910;28;20062;-65
2022/10/27 11:38:14;;;;;;;5.05;1.20;;;18.40;99.90;;;;;;4969914;28;20050;-65
2022/10/27 11:40:45;;;;;;;2.83;1.30;;;18.40;99.90;;;;;;4986022;28;20054;-65
2022/10/27 11:43:35;;;;;;;3.60;1.10;;;18.40;99.90;;;;;;4987705;28;20101;-66
2022/10/27 11:46:31;;;;;;;2.35;1.33;;;18.40;99.90;;;;;;4992240;28;20078;-66
2022/10/27 11:49:19;;;;;;;3.65;1.02;;;18.40;99.90;;;;;;4990014;28;20435;-66
2022/10/27 11:52:08;;;;;;;3.05;1.30;;;18.40;99.90;;;;;;4966718;28;20508;-65
2022/10/27 11:54:34;;;;;;;2.95;1.05;;;18.40;99.90;;;;;;4979851;28;20062;-66
2022/10/27 11:57:03;;;;;;;3.50;1.08;;;18.40;99.90;;;;;;4992056;28;20041;-66
2022/10/27 11:59:59;;;;;;;2.78;1.10;;;18.40;99.90;;;;;;4990657;28;20046;-66
2022/10/27 12:02:41;;;;;;;2.55;1.30;;;18.40;99.90;;;;;;4978238;28;20388;-66
2022/10/27 12:05:34;;;;;;;4.20;1.10;;;18.50;99.90;;;;;;4980083;28;20042;-66
2022/10/27 12:08:11;;;;;;;2.15;1.05;;;18.40;99.90;;;;;;4984698;28;20407;-66
2022/10/27 12:10:52;;;;;;;3.08;1.20;;;18.40;99.90;;;;;;4988501;28;20042;-66
2022/10/27 12:13:38;;;;;;;2.38;1.40;;;18.40;99.90;;;;;;4971988;28;20042;-67
2022/10/27 12:16:20;;;;;;;2.70;0.95;;;18.40;99.90;;;;;;4957555;28;20087;-66
2022/10/27 12:18:52;;;;;;;3.58;1.30;;;18.40;99.90;;;;;;4990334;28;20042;-67
2022/10/27 12:21:52;;;;;;;2.13;1.00;;;18.40;99.90;;;;;;4991314;28;20113;-67
2022/10/27 12:24:32;;;;;;;3.35;1.20;;;18.40;99.90;;;;;;4987348;28;20059;-66
2022/10/27 12:27:22;;;;;;;4.22;1.48;;;18.40;99.90;;;;;;4990579;28;20485;-66
2022/10/27 12:29:53;;;;;;;3.67;1.10;;;18.40;99.90;;;;;;4988377;28;20573;-66
2022/10/27 12:32:32;;;;;;;2.92;1.17;;;18.40;99.90;;;;;;4982474;28;20043;-67
2022/10/27 12:35:02;;;;;;;3.05;1.25;;;18.40;99.90;;;;;;4998056;28;20497;-66
2022/10/27 12:37:46;;;;;;;4.47;1.30;;;18.40;99.90;;;;;;5010054;28;20383;-66
2022/10/27 12:40:23;;;;;;;2.78;1.17;;;18.50;99.90;;;;;;5008610;28;20080;-67
2022/10/27 12:43:01;;;;;;;4.18;1.17;;;18.40;99.90;;;;;;4995714;28;20041;-67
2022/10/27 12:45:41;;;;;;;3.45;1.10;;;18.50;99.90;;;;;;5020292;28;20124;-67
2022/10/27 12:48:21;;;;;;;2.08;1.10;;;18.50;99.90;;;;;;5018959;28;20038;-67
2022/10/27 12:50:47;;;;;;;3.85;1.20;;;18.60;99.90;;;;;;5015087;28;20048;-67
2022/10/27 12:53:30;;;;;;;3.08;1.10;;;18.60;99.90;;;;;;5010941;28;20124;-66
2022/10/27 12:56:09;;;;;;;2.10;1.10;;;18.60;99.90;;;;;;4992702;28;20045;-66
2022/10/27 12:58:46;;;;;;;2.78;1.30;;;18.60;99.90;;;;;;5010907;28;20045;-66
2022/10/27 13:01:38;;;;;;;4.68;1.20;;;18.60;99.90;;;;;;5011214;28;20045;-66
2022/10/27 13:04:51;;;;;;;2.33;0.95;;;18.70;99.90;;;;;;5011108;28;20046;-65
2022/10/27 13:07:43;;;;;;;3.45;1.10;;;18.70;99.90;;;;;;5012710;28;20479;-65
2022/10/27 13:10:28;;;;;;;3.42;1.10;;;18.70;99.90;;;;;;5014969;28;20136;-65